Latest Coastal Weather Observations for Outer Harbor (Black Pole)

IDS60701

Issued at 6:01 pm CST Monday 20 September 2021 (issued every 10 minutes, with the page automatically refreshed every 10 minutes)

About coastal observations | Map of coastal stations | Coastal observations for SA | Marine services | Other Formats
Station Details ID: 023052 Name: BLACK POLE Lat: -34.73 Lon: 138.47 Height: 6.27 m
Data from the previous 72 hours. | See also: Recent months for locations in South Australia
Date/Time
CST
Wind Sea
Height
m
Swell Vis
km
Cloud Weather Temp
°C
Press
MSL
hPa
Rain since
9am
mm
Dir  Spd
kts
Gust
kts
Height
m
Period
s
Dir
20/06:00pm SW 25 33 - - - - - - - - - -
20/05:52pm SSW 32 44 - - - - - - - - - -
20/05:47pm SSW 30 44 - - - - - - - - - -
20/05:44pm SSW 26 41 - - - - - - - - - -
20/05:30pm SW 27 35 - - - - - - - - - -
20/05:00pm SSW 26 34 - - - - - - - - - -
20/04:30pm SW 26 31 - - - - - - - - - -
20/04:00pm WSW 23 29 - - - - - - - - - -
20/03:30pm SW 23 32 - - - - - - - - - -
20/03:28pm SW 21 32 - - - - - - - - - -
20/03:00pm SW 24 30 - - - - - - - - - -
20/02:30pm SW 22 26 - - - - - - - - - -
20/02:00pm SW 23 28 - - - - - - - - - -
20/01:30pm SW 21 28 - - - - - - - - - -
20/01:28pm SW 22 28 - - - - - - - - - -
20/01:21pm SW 30 40 - - - - - - - - - -
20/01:14pm SW 26 40 - - - - - - - - - -
20/01:12pm SW 24 38 - - - - - - - - - -
20/01:00pm SW 25 31 - - - - - - - - - -
20/12:30pm SW 25 35 - - - - - - - - - -
20/12:00pm SW 29 35 - - - - - - - - - -
20/11:40am SW 23 34 - - - - - - - - - -
20/11:30am SW 24 32 - - - - - - - - - -
20/11:13am SW 27 40 - - - - - - - - - -
20/11:00am SW 26 31 - - - - - - - - - -
20/10:30am W 20 24 - - - - - - - - - -
20/10:00am WSW 22 33 - - - - - - - - - -
20/09:50am W 20 30 - - - - - - - - - -
20/09:30am WSW 21 26 - - - - - - - - - -
20/09:18am WSW 18 29 - - - - - - - - - -
20/09:00am WSW 17 23 - - - - - - - - - -
20/08:56am WSW 20 30 - - - - - - - - - -
20/08:30am WSW 19 22 - - - - - - - - - -
20/08:00am WSW 21 28 - - - - - - - - - -
20/07:30am SW 18 30 - - - - - - - - - -
20/07:00am WSW 17 22 - - - - - - - - - -
20/06:30am WSW 24 29 - - - - - - - - - -
20/06:25am WSW 22 29 - - - - - - - - - -
20/06:00am SW 23 28 - - - - - - - - - -
20/05:30am SW 19 23 - - - - - - - - - -
20/05:12am SW 19 31 - - - - - - - - - -
20/05:00am SW 18 23 - - - - - - - - - -
20/04:30am SW 20 25 - - - - - - - - - -
20/04:00am SW 21 26 - - - - - - - - - -
20/03:30am SW 20 25 - - - - - - - - - -
20/03:00am SW 25 30 - - - - - - - - - -
20/02:30am WSW 23 29 - - - - - - - - - -
20/02:00am WSW 19 23 - - - - - - - - - -
20/01:30am WSW 21 30 - - - - - - - - - -
20/01:00am WSW 19 23 - - - - - - - - - -
20/12:30am WSW 22 25 - - - - - - - - - -
20/12:00am WSW 23 27 - - - - - - - - - -
 
Date/Time
CST
Wind Sea
Height
m
Swell Vis
km
Cloud Weather Temp
°C
Press
MSL
hPa
Rain since
9am
mm
Dir  Spd
kts
Gust
kts
Height
m
Period
s
Dir
19/11:30pm WSW 19 25 - - - - - - - - - -
19/11:00pm WSW 20 24 - - - - - - - - - -
19/10:40pm W 18 24 - - - - - - - - - -
19/10:30pm W 16 19 - - - - - - - - - -
19/10:00pm W 13 16 - - - - - - - - - -
19/09:30pm W 14 17 - - - - - - - - - -
19/09:00pm W 13 16 - - - - - - - - - -
19/08:30pm W 13 15 - - - - - - - - - -
19/08:00pm WSW 10 13 - - - - - - - - - -
19/07:30pm WSW 9 10 - - - - - - - - - -
19/07:00pm W 9 10 - - - - - - - - - -
19/06:30pm W 10 12 - - - - - - - - - -
19/06:00pm W 11 13 - - - - - - - - - -
19/05:30pm W 9 12 - - - - - - - - - -
19/05:00pm WSW 13 15 - - - - - - - - - -
19/04:30pm W 12 14 - - - - - - - - - -
19/04:00pm W 12 14 - - - - - - - - - -
19/03:30pm W 15 17 - - - - - - - - - -
19/03:00pm WNW 10 12 - - - - - - - - - -
19/02:30pm W 10 12 - - - - - - - - - -
19/02:00pm W 12 14 - - - - - - - - - -
19/01:30pm W 13 16 - - - - - - - - - -
19/01:00pm WNW 9 12 - - - - - - - - - -
19/12:30pm NW 13 15 - - - - - - - - - -
19/12:00pm NW 14 17 - - - - - - - - - -
19/11:30am NW 16 21 - - - - - - - - - -
19/11:00am NW 15 19 - - - - - - - - - -
19/10:30am NW 16 19 - - - - - - - - - -
19/10:00am NW 17 20 - - - - - - - - - -
19/09:30am NNW 17 21 - - - - - - - - - -
19/09:00am NNW 16 20 - - - - - - - - - -
19/08:30am NNW 14 17 - - - - - - - - - -
19/08:00am NNW 14 17 - - - - - - - - - -
19/07:30am NNW 14 16 - - - - - - - - - -
19/07:00am NNW 14 17 - - - - - - - - - -
19/06:30am N 14 16 - - - - - - - - - -
19/06:00am N 14 15 - - - - - - - - - -
19/05:30am N 14 16 - - - - - - - - - -
19/05:00am N 13 15 - - - - - - - - - -
19/04:30am N 13 15 - - - - - - - - - -
19/04:00am N 13 16 - - - - - - - - - -
19/03:30am N 13 18 - - - - - - - - - -
19/03:00am N 13 17 - - - - - - - - - -
19/02:30am NNE 11 13 - - - - - - - - - -
19/02:00am N 10 13 - - - - - - - - - -
19/01:30am NNW 12 13 - - - - - - - - - -
19/01:00am N 11 12 - - - - - - - - - -
19/12:30am NW 15 19 - - - - - - - - - -
19/12:00am NW 16 18 - - - - - - - - - -
 
Date/Time
CST
Wind Sea
Height
m
Swell Vis
km
Cloud Weather Temp
°C
Press
MSL
hPa
Rain since
9am
mm
Dir  Spd
kts
Gust
kts
Height
m
Period
s
Dir
18/11:30pm WNW 15 17 - - - - - - - - - -
18/11:00pm NW 12 15 - - - - - - - - - -
18/10:30pm NW 11 12 - - - - - - - - - -
18/10:00pm WNW 9 11 - - - - - - - - - -
18/09:30pm W 9 11 - - - - - - - - - -
18/09:00pm W 11 13 - - - - - - - - - -
18/08:30pm W 12 15 - - - - - - - - - -
18/08:00pm W 13 17 - - - - - - - - - -
18/07:30pm W 13 15 - - - - - - - - - -
18/07:00pm W 13 15 - - - - - - - - - -
18/06:30pm W 13 16 - - - - - - - - - -
18/06:00pm W 13 15 - - - - - - - - - -
18/05:30pm W 14 16 - - - - - - - - - -
18/05:00pm W 14 19 - - - - - - - - - -
18/04:30pm W 12 15 - - - - - - - - - -
18/04:00pm W 18 21 - - - - - - - - - -
18/03:30pm W 19 24 - - - - - - - - - -
18/03:00pm W 15 18 - - - - - - - - - -
18/02:30pm W 16 20 - - - - - - - - - -
18/02:00pm W 18 21 - - - - - - - - - -
18/01:30pm W 20 24 - - - - - - - - - -
18/01:00pm W 17 20 - - - - - - - - - -
18/12:30pm W 17 19 - - - - - - - - - -
18/12:00pm W 18 22 - - - - - - - - - -
18/11:30am W 19 23 - - - - - - - - - -
18/11:00am W 17 20 - - - - - - - - - -
18/10:30am W 18 22 - - - - - - - - - -
18/10:00am W 15 20 - - - - - - - - - -
18/09:30am W 15 19 - - - - - - - - - -
18/09:00am W 17 20 - - - - - - - - - -
18/08:30am W 20 27 - - - - - - - - - -
18/08:00am W 19 23 - - - - - - - - - -
18/07:30am W 20 24 - - - - - - - - - -
18/07:00am W 20 24 - - - - - - - - - -
18/06:30am W 18 23 - - - - - - - - - -
18/06:00am W 19 24 - - - - - - - - - -
18/05:30am W 16 19 - - - - - - - - - -
18/05:00am W 18 21 - - - - - - - - - -
18/04:30am W 18 23 - - - - - - - - - -
18/04:00am W 22 28 - - - - - - - - - -
18/03:30am W 15 19 - - - - - - - - - -
18/03:00am W 22 32 - - - - - - - - - -
18/02:58am W 20 32 - - - - - - - - - -
18/02:30am W 17 22 - - - - - - - - - -
18/02:00am W 18 23 - - - - - - - - - -
18/01:30am W 18 22 - - - - - - - - - -
18/01:00am W 15 18 - - - - - - - - - -
18/12:30am W 14 17 - - - - - - - - - -
18/12:00am W 18 21 - - - - - - - - - -
 
Date/Time
CST
Wind Sea
Height
m
Swell Vis
km
Cloud Weather Temp
°C
Press
MSL
hPa
Rain since
9am
mm
Dir  Spd
kts
Gust
kts
Height
m
Period
s
Dir
17/11:30pm W 19 23 - - - - - - - - - -
17/11:00pm WNW 18 22 - - - - - - - - - -
17/10:30pm WNW 18 22 - - - - - - - - - -
17/10:00pm WNW 18 22 - - - - - - - - - -
17/09:30pm W 14 17 - - - - - - - - - -
17/09:00pm W 17 21 - - - - - - - - - -
17/08:30pm W 23 30 - - - - - - - - - -
17/08:00pm W 21 26 - - - - - - - - - -
17/07:30pm W 24 29 - - - - - - - - - -
17/07:00pm W 17 22 - - - - - - - - - -
17/06:30pm W 13 16 - - - - - - - - - -

Other formats

Comma delimited format used in spreadsheet applications
http://www.bom.gov.au/fwo/IDS60701/IDS60701.95675.axf

JavaScript Object Notation format (JSON) in row-major order
http://www.bom.gov.au/fwo/IDS60701/IDS60701.95675.json

Data quality

Most of these data are generated automatically and are frequently updated. Quality checks on data are not normally performed. It is possible for incorrect values to appear. Refer to information at About Latest Weather Observations and please check the disclaimer before using these data.